Time;durP1;ratioP1;P1;durP2;ratioP2;P2;SDS_P1;SDS_P2;PMS_P1;PMS_P2;Temp;Humidity;BMP_temperature;BMP_pressure;BME280_temperature;BME280_humidity;BME280_pressure;Samples;Min_cycle;Max_cycle;Signal;HPM_P1;HPM_P2
2023/07/13 00:00:45;;;;;;;15.40;4.97;;;;;;;23.87;64.58;94922.97;5109341;28;20200;-46
2023/07/13 00:03:13;;;;;;;6.95;3.90;;;;;;;23.85;64.71;94911.94;5093399;28;20580;-43
2023/07/13 00:05:42;;;;;;;4.97;4.00;;;;;;;23.83;64.43;94914.75;5088973;28;20198;-44
2023/07/13 00:08:11;;;;;;;5.40;4.65;;;;;;;23.81;64.59;94910.78;5089029;28;20217;-44
2023/07/13 00:10:41;;;;;;;10.77;3.97;;;;;;;23.75;64.42;94904.59;5088846;28;20566;-44
2023/07/13 00:13:10;;;;;;;7.18;4.53;;;;;;;23.76;64.83;94904.38;5088714;28;20312;-44
2023/07/13 00:15:37;;;;;;;8.07;4.32;;;;;;;23.75;64.91;94905.41;5089056;28;20273;-44
2023/07/13 00:18:04;;;;;;;6.30;3.83;;;;;;;23.74;64.97;94905.59;5088536;28;20545;-45
2023/07/13 00:20:33;;;;;;;5.20;4.07;;;;;;;23.68;65.24;94899.44;5108666;28;20185;-44
2023/07/13 00:22:59;;;;;;;6.90;4.97;;;;;;;23.54;65.82;94880.44;5109245;28;20228;-44
2023/07/13 00:25:27;;;;;;;5.65;4.22;;;;;;;23.63;66.09;94894.03;5106277;28;20185;-44
2023/07/13 00:27:56;;;;;;;7.60;4.40;;;;;;;23.59;66.32;94887.63;5104873;28;20666;-44
2023/07/13 00:30:24;;;;;;;7.28;3.85;;;;;;;23.54;66.81;94893.50;5108762;28;20256;-44
2023/07/13 00:32:51;;;;;;;7.75;3.78;;;;;;;23.46;66.98;94874.69;5108536;28;20231;-43
2023/07/13 00:35:19;;;;;;;5.70;4.30;;;;;;;23.49;67.51;94892.53;5112533;28;20189;-44
2023/07/13 00:37:46;;;;;;;5.43;4.30;;;;;;;23.26;67.40;94859.97;5112756;28;20181;-46
2023/07/13 00:40:14;;;;;;;6.47;4.20;;;;;;;23.43;67.47;94894.16;5101645;28;20249;-43
2023/07/13 00:42:42;;;;;;;10.25;4.50;;;;;;;23.38;67.93;94893.22;5112633;28;20302;-42
2023/07/13 00:45:48;;;;;;;6.70;4.43;;;;;;;23.32;68.47;94888.84;5112193;28;20277;-45
2023/07/13 00:48:21;;;;;;;4.97;4.07;;;;;;;23.35;68.53;94896.22;5111698;28;20185;-43
2023/07/13 00:50:51;;;;;;;5.72;4.30;;;;;;;23.34;68.34;94889.41;5112458;28;20192;-45
2023/07/13 00:53:18;;;;;;;9.07;4.57;;;;;;;23.31;68.22;94895.06;5112094;28;20225;-44
2023/07/13 00:55:46;;;;;;;5.10;4.60;;;;;;;23.29;68.86;94898.69;5106377;28;20185;-43
2023/07/13 00:58:13;;;;;;;9.05;4.55;;;;;;;23.23;69.04;94881.28;5091624;28;20190;-43
2023/07/13 01:00:41;;;;;;;4.53;4.13;;;;;;;23.22;69.14;94886.69;5091780;28;20566;-44
2023/07/13 01:03:08;;;;;;;9.48;4.50;;;;;;;23.17;69.93;94889.13;5092013;28;20258;-43
2023/07/13 01:05:37;;;;;;;6.65;4.32;;;;;;;23.20;69.62;94888.72;5093059;28;20209;-45
2023/07/13 01:08:05;;;;;;;6.63;4.53;;;;;;;23.17;70.27;94884.72;5109702;28;20181;-44
2023/07/13 01:10:38;;;;;;;5.13;4.63;;;;;;;23.15;70.43;94889.34;5112182;28;20571;-44
2023/07/13 01:13:06;;;;;;;10.60;4.90;;;;;;;23.16;70.62;94890.16;5111824;28;20307;-45
2023/07/13 01:15:41;;;;;;;7.55;4.68;;;;;;;23.13;70.89;94891.34;5110433;28;20222;-43
2023/07/13 01:18:11;;;;;;;5.25;4.55;;;;;;;23.08;71.36;94887.78;5099506;28;20414;-44
2023/07/13 01:20:39;;;;;;;7.47;4.95;;;;;;;23.09;71.76;94895.41;5091913;28;20182;-44
2023/07/13 01:23:09;;;;;;;6.18;5.25;;;;;;;23.03;71.90;94875.38;5091880;28;20250;-44
2023/07/13 01:25:38;;;;;;;7.78;4.95;;;;;;;23.03;71.90;94880.59;5091362;28;20186;-44
2023/07/13 01:28:06;;;;;;;12.13;5.63;;;;;;;22.99;72.18;94877.59;5098391;28;20629;-45
2023/07/13 01:30:32;;;;;;;6.63;5.35;;;;;;;22.77;72.24;94845.81;5111807;28;20670;-45
2023/07/13 01:32:59;;;;;;;9.80;5.35;;;;;;;22.94;72.71;94874.81;5111537;28;20228;-45
2023/07/13 01:35:26;;;;;;;7.47;5.50;;;;;;;22.92;72.96;94878.66;5111402;28;20555;-43
2023/07/13 01:37:53;;;;;;;8.75;6.10;;;;;;;22.88;72.78;94873.00;5110315;28;20243;-43
2023/07/13 01:40:22;;;;;;;8.32;5.13;;;;;;;22.89;72.99;94879.06;5091729;28;20186;-44
2023/07/13 01:42:49;;;;;;;7.25;4.80;;;;;;;22.88;73.43;94872.22;5091364;28;20189;-44
2023/07/13 01:45:16;;;;;;;8.05;5.82;;;;;;;22.84;73.55;94871.84;5089602;28;20715;-45
2023/07/13 01:47:42;;;;;;;9.20;5.45;;;;;;;22.81;73.98;94869.66;5091969;28;20186;-43
2023/07/13 01:50:10;;;;;;;9.05;5.30;;;;;;;22.67;73.95;94845.47;5090474;28;20185;-43
2023/07/13 01:52:37;;;;;;;7.78;5.18;;;;;;;22.76;74.34;94872.91;5102007;28;20728;-43
2023/07/13 01:55:05;;;;;;;12.68;5.55;;;;;;;22.69;74.94;94873.94;5110709;28;20197;-43
2023/07/13 01:57:33;;;;;;;7.60;5.38;;;;;;;22.66;74.44;94864.69;5111125;28;20199;-43
2023/07/13 02:00:02;;;;;;;8.35;5.68;;;;;;;22.68;74.38;94869.72;5106905;28;20185;-44
2023/07/13 02:02:29;;;;;;;7.20;5.03;;;;;;;22.64;75.15;94879.78;5091758;28;20276;-43
2023/07/13 02:04:56;;;;;;;8.18;6.10;;;;;;;22.64;75.04;94877.16;5107683;28;20182;-42
2023/07/13 02:07:23;;;;;;;6.32;5.47;;;;;;;22.61;75.28;94879.38;5110661;28;20541;-43
2023/07/13 02:09:50;;;;;;;7.75;5.55;;;;;;;22.64;75.87;94884.19;5110874;28;20185;-43
2023/07/13 02:12:16;;;;;;;5.75;5.25;;;;;;;22.66;75.78;94885.56;5110494;28;20214;-44
2023/07/13 02:14:44;;;;;;;8.10;5.15;;;;;;;22.66;75.98;94882.16;5096306;28;20253;-43
2023/07/13 02:17:12;;;;;;;9.98;5.22;;;;;;;22.63;76.16;94891.22;5110842;28;20197;-43
2023/07/13 02:19:38;;;;;;;10.52;5.43;;;;;;;22.32;76.02;94839.78;5110392;28;20191;-45
2023/07/13 02:22:05;;;;;;;10.23;5.50;;;;;;;22.58;76.03;94882.38;5110374;28;20299;-44
2023/07/13 02:24:32;;;;;;;13.23;5.18;;;;;;;22.50;76.25;94884.25;5108778;28;20193;-44
2023/07/13 02:26:59;;;;;;;11.43;6.18;;;;;;;22.43;76.35;94877.44;5097027;28;20713;-42
2023/07/13 02:29:26;;;;;;;9.07;5.78;;;;;;;22.44;76.62;94895.47;5110387;28;20232;-44
2023/07/13 02:31:54;;;;;;;8.18;5.65;;;;;;;22.41;76.53;94890.69;5110500;28;20224;-44
2023/07/13 02:34:21;;;;;;;13.20;6.05;;;;;;;22.39;76.70;94895.31;5108634;28;20205;-43
2023/07/13 02:36:48;;;;;;;7.75;5.60;;;;;;;22.37;76.72;94894.72;5098175;28;20698;-44
2023/07/13 02:39:15;;;;;;;8.00;6.00;;;;;;;22.34;77.13;94895.13;5090235;28;20205;-43
2023/07/13 02:41:42;;;;;;;9.07;6.15;;;;;;;22.32;77.31;94886.69;5090306;28;20190;-43
2023/07/13 02:44:08;;;;;;;8.52;6.13;;;;;;;22.30;77.42;94886.13;5090024;28;20201;-44
2023/07/13 02:46:37;;;;;;;9.52;5.53;;;;;;;22.29;77.87;94881.91;5096009;28;20188;-45
2023/07/13 02:49:05;;;;;;;8.43;5.43;;;;;;;22.25;77.87;94881.53;5101277;28;20247;-44
2023/07/13 02:51:33;;;;;;;7.30;5.13;;;;;;;22.28;77.78;94886.34;5090091;28;20603;-44
2023/07/13 02:54:00;;;;;;;11.52;5.28;;;;;;;22.25;78.11;94881.53;5089856;28;20642;-43
2023/07/13 02:56:29;;;;;;;10.10;5.68;;;;;;;22.26;78.27;94888.31;5090747;28;20185;-43
2023/07/13 02:58:56;;;;;;;9.73;6.05;;;;;;;22.18;79.19;94877.31;5108829;28;20193;-44
2023/07/13 03:01:24;;;;;;;6.80;5.43;;;;;;;22.24;78.79;94890.34;5108762;28;20193;-45
2023/07/13 03:03:51;;;;;;;10.55;6.10;;;;;;;22.24;78.97;94898.16;5103125;28;20220;-42
2023/07/13 03:06:21;;;;;;;8.65;5.60;;;;;;;22.31;79.20;94899.94;5097030;28;20274;-44
2023/07/13 03:08:50;;;;;;;7.30;6.00;;;;;;;22.20;78.45;94883.16;5089283;28;20638;-44
2023/07/13 03:11:19;;;;;;;8.32;5.88;;;;;;;22.27;78.48;94899.53;5089704;28;20197;-45
2023/07/13 03:13:47;;;;;;;8.07;6.47;;;;;;;22.10;78.67;94874.91;5089351;28;20225;-43
2023/07/13 03:16:15;;;;;;;11.05;5.72;;;;;;;22.33;78.36;94897.94;5090713;28;20201;-44
2023/07/13 03:18:42;;;;;;;11.93;6.18;;;;;;;22.29;78.01;94908.78;5106522;28;20201;-42
2023/07/13 03:21:09;;;;;;;12.10;6.63;;;;;;;22.21;77.69;94888.16;5109307;28;20636;-43
2023/07/13 03:23:37;;;;;;;10.00;5.70;;;;;;;22.25;77.52;94907.56;5110056;28;20193;-44
2023/07/13 03:26:06;;;;;;;9.70;5.65;;;;;;;22.29;77.48;94905.38;5108990;28;20614;-42
2023/07/13 03:28:33;;;;;;;9.38;5.97;;;;;;;22.33;77.19;94901.34;5098894;28;20278;-44
2023/07/13 03:31:01;;;;;;;12.63;5.70;;;;;;;22.37;77.26;94904.34;5089324;28;20185;-44
2023/07/13 03:33:28;;;;;;;6.63;5.32;;;;;;;22.32;77.45;94886.69;5089511;28;20229;-43
2023/07/13 03:35:55;;;;;;;8.90;5.90;;;;;;;22.43;77.07;94908.72;5089295;28;20209;-44
2023/07/13 03:38:22;;;;;;;10.07;5.80;;;;;;;22.50;76.76;94909.50;5095780;28;20185;-44
2023/07/13 03:40:50;;;;;;;10.38;5.95;;;;;;;22.56;76.77;94913.88;5109607;28;20196;-43
2023/07/13 03:43:17;;;;;;;10.35;5.80;;;;;;;22.59;76.55;94915.28;5109227;28;20185;-46
2023/07/13 03:45:43;;;;;;;7.85;5.45;;;;;;;22.66;76.39;94903.81;5109421;28;20682;-43
2023/07/13 03:48:10;;;;;;;8.50;5.70;;;;;;;22.74;75.86;94914.00;5108044;28;20192;-45
2023/07/13 03:50:38;;;;;;;9.80;5.97;;;;;;;22.82;75.65;94914.78;5090311;28;20617;-43
2023/07/13 03:53:05;;;;;;;12.77;5.70;;;;;;;22.88;75.57;94914.75;5089387;28;20217;-44
2023/07/13 03:55:31;;;;;;;13.98;5.85;;;;;;;22.95;75.41;94907.72;5089065;28;20234;-44
2023/07/13 03:58:02;;;;;;;8.38;6.20;;;;;;;23.02;74.75;94905.88;5104863;28;20185;-44
2023/07/13 04:00:29;;;;;;;8.77;5.93;;;;;;;23.08;74.92;94913.88;5089220;28;20653;-44
2023/07/13 04:02:55;;;;;;;11.45;6.00;;;;;;;23.13;75.18;94899.19;5089161;28;20662;-45
2023/07/13 04:05:22;;;;;;;8.88;5.65;;;;;;;23.23;74.45;94904.75;5088973;28;20193;-44
2023/07/13 04:07:49;;;;;;;11.73;6.15;;;;;;;23.29;74.70;94906.50;5089260;28;20182;-45
2023/07/13 04:10:16;;;;;;;10.00;5.60;;;;;;;23.36;74.42;94906.47;5098510;28;20280;-43
2023/07/13 04:12:43;;;;;;;10.60;5.97;;;;;;;23.36;74.44;94897.81;5113046;28;20185;-43
2023/07/13 04:15:11;;;;;;;11.77;6.38;;;;;;;23.41;74.69;94908.47;5113254;28;20279;-45
2023/07/13 04:17:38;;;;;;;8.73;5.93;;;;;;;23.48;74.16;94899.53;5112973;28;20193;-44
2023/07/13 04:20:06;;;;;;;9.60;6.43;;;;;;;23.50;74.16;94901.97;5111251;28;20250;-45
2023/07/13 04:22:33;;;;;;;14.05;6.53;;;;;;;23.62;73.99;94902.88;5095220;28;20178;-45
2023/07/13 04:24:59;;;;;;;8.80;6.68;;;;;;;23.72;73.85;94905.81;5113563;28;20196;-44
2023/07/13 04:27:26;;;;;;;13.02;6.70;;;;;;;23.78;73.47;94915.41;5112810;28;20647;-44
2023/07/13 04:29:53;;;;;;;11.40;6.72;;;;;;;23.90;73.35;94923.34;5111463;28;20575;-43
2023/07/13 04:32:21;;;;;;;15.57;7.55;;;;;;;23.93;72.55;94915.09;5101526;28;20570;-43
2023/07/13 04:34:53;;;;;;;10.35;6.93;;;;;;;23.89;72.55;94913.91;5105196;28;20209;-43
2023/07/13 04:37:21;;;;;;;9.93;7.07;;;;;;;23.95;72.58;94927.94;5112645;28;20177;-48
2023/07/13 04:39:48;;;;;;;9.40;6.88;;;;;;;24.07;72.01;94925.41;5113072;28;20284;-43
2023/07/13 04:42:15;;;;;;;13.05;7.72;;;;;;;24.18;71.98;94930.75;5106635;28;20189;-44
2023/07/13 04:44:42;;;;;;;19.10;6.85;;;;;;;24.27;71.60;94939.09;5092970;28;20251;-47
2023/07/13 04:47:09;;;;;;;9.93;7.90;;;;;;;24.33;71.90;94932.19;5093284;28;20189;-45
2023/07/13 04:49:37;;;;;;;15.15;7.82;;;;;;;24.39;72.23;94926.13;5092040;28;20182;-45
2023/07/13 04:52:05;;;;;;;11.63;7.93;;;;;;;24.48;72.18;94940.50;5106187;28;20633;-43
2023/07/13 04:54:31;;;;;;;12.70;7.65;;;;;;;24.18;71.89;94882.88;5100830;28;20303;-46
2023/07/13 04:56:58;;;;;;;12.70;7.80;;;;;;;24.58;71.84;94937.38;5092048;28;20194;-43
2023/07/13 04:59:25;;;;;;;15.35;7.82;;;;;;;24.70;72.04;94944.28;5091765;28;20197;-44
2023/07/13 05:01:52;;;;;;;13.65;8.43;;;;;;;24.82;71.26;94941.72;5103499;28;20177;-43
2023/07/13 05:04:19;;;;;;;14.75;8.75;;;;;;;24.87;71.47;94943.66;5091745;28;20198;-44
2023/07/13 05:06:47;;;;;;;11.63;8.40;;;;;;;24.91;70.98;94950.84;5091888;28;20197;-44
2023/07/13 05:09:13;;;;;;;14.13;8.52;;;;;;;24.95;70.46;94945.97;5091523;28;20178;-43
2023/07/13 05:11:40;;;;;;;12.23;8.80;;;;;;;24.97;70.59;94942.13;5091684;28;20208;-44
2023/07/13 05:14:09;;;;;;;15.95;9.50;;;;;;;25.12;70.99;94951.44;5091470;28;20258;-44
2023/07/13 05:16:36;;;;;;;19.73;9.52;;;;;;;25.26;70.76;94955.50;5091270;28;20190;-44
2023/07/13 05:19:03;;;;;;;11.88;9.10;;;;;;;25.46;69.82;94960.44;5097712;28;20656;-44
2023/07/13 05:21:30;;;;;;;11.48;8.63;;;;;;;25.64;69.05;94960.34;5111060;28;20280;-44
2023/07/13 05:23:58;;;;;;;12.10;8.55;;;;;;;25.94;67.35;94968.19;5092608;28;20186;-44
2023/07/13 05:26:25;;;;;;;13.20;8.25;;;;;;;26.15;66.05;94950.31;5091255;28;20189;-43
2023/07/13 05:28:52;;;;;;;10.30;7.93;;;;;;;26.51;64.82;94955.34;5091381;28;20270;-43
2023/07/13 05:31:18;;;;;;;11.23;7.97;;;;;;;26.87;64.19;94953.44;5091003;28;20189;-43
2023/07/13 05:33:45;;;;;;;12.25;7.40;;;;;;;27.34;63.13;94958.53;5092731;28;20217;-44
2023/07/13 05:36:12;;;;;;;18.15;8.48;;;;;;;27.74;60.77;94958.47;5091464;28;20239;-44
2023/07/13 05:38:39;;;;;;;15.55;8.57;;;;;;;28.10;59.91;94961.63;5105851;28;20192;-43
2023/07/13 05:41:08;;;;;;;15.55;8.18;;;;;;;28.39;59.08;94969.44;5110047;28;20177;-44
2023/07/13 05:43:35;;;;;;;9.10;8.15;;;;;;;28.77;58.36;94959.94;5111497;28;20193;-43
2023/07/13 05:46:02;;;;;;;10.38;7.13;;;;;;;29.14;57.08;94970.66;5098395;28;20185;-44
2023/07/13 05:48:28;;;;;;;12.45;7.97;;;;;;;29.47;56.26;94969.69;5111780;28;20195;-44
2023/07/13 05:50:55;;;;;;;15.35;8.35;;;;;;;29.65;54.66;94968.56;5111867;28;20185;-44
2023/07/13 05:53:22;;;;;;;13.40;8.70;;;;;;;29.74;54.26;94972.34;5107012;28;20178;-44
2023/07/13 05:55:49;;;;;;;16.92;8.15;;;;;;;29.81;54.54;94964.22;5100781;28;20188;-44
2023/07/13 05:58:18;;;;;;;13.10;7.47;;;;;;;30.06;53.90;94971.53;5097815;28;20194;-45
2023/07/13 06:00:45;;;;;;;11.45;8.02;;;;;;;30.34;52.65;94958.03;5105040;28;20197;-44
2023/07/13 06:03:12;;;;;;;13.38;8.43;;;;;;;30.63;52.12;94955.03;5101500;28;20532;-45
2023/07/13 06:05:39;;;;;;;10.98;7.75;;;;;;;30.91;50.82;94952.00;5096294;28;20189;-44
2023/07/13 06:08:06;;;;;;;12.27;7.30;;;;;;;31.19;50.45;94945.47;5106877;28;20663;-45
2023/07/13 06:10:34;;;;;;;11.80;7.20;;;;;;;31.46;50.80;94947.16;5108207;28;20174;-45
2023/07/13 06:13:01;;;;;;;15.48;8.88;;;;;;;31.77;49.85;94958.53;5111144;28;20606;-45
2023/07/13 06:15:29;;;;;;;12.07;7.32;;;;;;;31.97;49.29;94963.06;5106098;28;20756;-46
2023/07/13 06:17:55;;;;;;;9.50;7.55;;;;;;;32.23;48.66;94974.44;5101620;28;20274;-46
2023/07/13 06:20:22;;;;;;;12.52;7.45;;;;;;;32.37;48.90;94970.16;5090404;28;20201;-45
2023/07/13 06:22:49;;;;;;;8.27;5.70;;;;;;;32.47;47.90;94977.31;5094439;28;20208;-43
2023/07/13 06:25:16;;;;;;;10.85;7.78;;;;;;;32.66;46.66;94969.59;5085722;28;20197;-45
2023/07/13 06:27:43;;;;;;;11.82;9.18;;;;;;;32.82;46.48;94965.84;5109758;28;20193;-43
2023/07/13 06:30:11;;;;;;;17.95;9.63;;;;;;;32.68;45.75;94970.13;5109671;28;20225;-43
2023/07/13 06:32:39;;;;;;;12.93;9.65;;;;;;;32.46;46.75;94973.09;5109398;28;20213;-43
2023/07/13 06:35:07;;;;;;;15.40;8.35;;;;;;;32.53;46.67;94965.66;5106753;28;20217;-43
2023/07/13 06:37:34;;;;;;;7.88;7.10;;;;;;;32.74;46.60;94961.09;5108998;28;20196;-43
2023/07/13 06:40:01;;;;;;;10.68;8.13;;;;;;;33.03;46.18;94965.78;5108919;28;20264;-43
2023/07/13 06:42:27;;;;;;;9.60;6.95;;;;;;;33.15;44.90;94959.09;5109681;28;20557;-43
2023/07/13 06:44:54;;;;;;;9.00;7.10;;;;;;;33.29;44.18;94958.47;5106508;28;20618;-43
2023/07/13 06:47:21;;;;;;;8.55;6.57;;;;;;;33.53;43.85;94956.78;5107417;28;20197;-43
2023/07/13 06:49:49;;;;;;;7.50;6.03;;;;;;;33.64;42.98;94958.31;5106966;28;20223;-43
2023/07/13 06:52:16;;;;;;;14.95;7.20;;;;;;;33.72;41.46;94959.56;5103494;28;20265;-43
2023/07/13 06:54:42;;;;;;;11.68;7.00;;;;;;;33.86;42.37;94965.84;5103978;28;20213;-42
2023/07/13 06:57:09;;;;;;;12.90;7.50;;;;;;;34.03;42.72;94965.47;5104095;28;20192;-43
2023/07/13 06:59:36;;;;;;;12.50;7.60;;;;;;;34.11;41.63;94961.38;5106657;28;20728;-42
2023/07/13 07:02:03;;;;;;;8.88;6.57;;;;;;;34.19;41.34;94958.13;5106926;28;20705;-42
2023/07/13 07:04:30;;;;;;;7.45;6.43;;;;;;;34.28;41.12;94966.28;5106850;28;20681;-43
2023/07/13 07:06:58;;;;;;;10.55;6.57;;;;;;;34.39;40.31;94963.25;5106708;28;20188;-44
2023/07/13 07:09:25;;;;;;;11.50;6.90;;;;;;;34.47;40.52;94961.06;5106134;28;21932;-43
2023/07/13 07:11:51;;;;;;;14.20;6.80;;;;;;;34.62;40.56;94963.56;5106658;28;20193;-43
2023/07/13 07:14:18;;;;;;;9.63;6.43;;;;;;;34.71;41.12;94964.53;5106732;28;20715;-44
2023/07/13 07:16:45;;;;;;;8.98;6.30;;;;;;;34.84;41.13;94960.41;5106396;28;20727;-43
2023/07/13 07:19:12;;;;;;;20.17;7.03;;;;;;;35.02;40.05;94965.00;5106874;28;20716;-43
2023/07/13 07:21:38;;;;;;;8.70;6.45;;;;;;;35.03;40.15;94953.28;5106528;28;20587;-42
2023/07/13 07:24:07;;;;;;;8.02;7.22;;;;;;;35.06;40.27;94957.22;5103398;28;20649;-43
2023/07/13 07:26:34;;;;;;;10.13;6.45;;;;;;;35.04;40.00;94952.22;5106677;28;20203;-44
2023/07/13 07:29:01;;;;;;;8.77;6.57;;;;;;;35.04;41.22;94954.09;5106792;28;20233;-43
2023/07/13 07:31:28;;;;;;;8.02;6.65;;;;;;;35.15;39.24;94947.56;5106074;28;20197;-43
2023/07/13 07:33:55;;;;;;;7.82;7.00;;;;;;;35.19;38.79;94948.53;5109239;28;20193;-43
2023/07/13 07:36:21;;;;;;;10.68;6.40;;;;;;;35.01;39.45;94944.78;5109511;28;20185;-43
2023/07/13 07:38:48;;;;;;;9.82;7.03;;;;;;;34.78;40.29;94919.03;5107550;28;20185;-43
2023/07/13 07:41:16;;;;;;;12.50;7.35;;;;;;;35.00;39.19;94945.09;5109249;28;20181;-44
2023/07/13 07:43:43;;;;;;;7.80;6.50;;;;;;;34.94;39.83;94941.69;5111502;28;20185;-44
2023/07/13 07:46:10;;;;;;;7.50;6.80;;;;;;;35.04;40.17;94930.94;5110005;28;20188;-45
2023/07/13 07:48:36;;;;;;;9.57;6.93;;;;;;;35.19;40.25;94943.22;5113110;28;20292;-44
2023/07/13 07:51:03;;;;;;;9.82;7.10;;;;;;;35.33;39.85;94935.34;5113321;28;20193;-44
2023/07/13 07:53:31;;;;;;;9.73;6.72;;;;;;;35.42;39.57;94933.63;5112970;28;20197;-45
2023/07/13 07:55:57;;;;;;;15.15;6.72;;;;;;;35.42;39.80;94930.94;5111861;28;20286;-43
2023/07/13 07:58:26;;;;;;;8.57;6.55;;;;;;;35.40;40.14;94927.78;5109105;28;20188;-43
2023/07/13 08:00:52;;;;;;;12.68;6.75;;;;;;;35.39;40.04;94921.66;5105728;28;20184;-43
2023/07/13 08:03:19;;;;;;;9.93;7.03;;;;;;;35.51;39.68;94923.94;5113009;28;20197;-45
2023/07/13 08:05:46;;;;;;;9.55;6.32;;;;;;;35.53;39.53;94913.78;5113324;28;20255;-43
2023/07/13 08:08:13;;;;;;;12.52;6.70;;;;;;;35.56;39.40;94913.19;5112822;28;20193;-45
2023/07/13 08:10:39;;;;;;;10.55;6.20;;;;;;;35.55;38.78;94898.31;5109454;28;20180;-45
2023/07/13 08:13:06;;;;;;;11.25;7.07;;;;;;;35.44;39.42;94904.84;5112662;28;20193;-44
2023/07/13 08:15:34;;;;;;;7.47;6.55;;;;;;;35.52;39.46;94904.22;5111553;28;20707;-44
2023/07/13 08:18:02;;;;;;;11.73;6.35;;;;;;;35.69;39.49;94903.69;5113397;28;20193;-44
2023/07/13 08:20:29;;;;;;;15.27;6.90;;;;;;;35.84;39.07;94902.63;5112568;28;20613;-44
2023/07/13 08:22:55;;;;;;;11.18;6.90;;;;;;;35.76;39.52;94901.44;5112786;28;20201;-44
2023/07/13 08:25:22;;;;;;;11.85;6.65;;;;;;;35.79;39.51;94900.06;5112788;28;20185;-45
2023/07/13 08:27:49;;;;;;;9.93;6.60;;;;;;;35.78;39.60;94901.94;5112493;28;20196;-44
2023/07/13 08:30:16;;;;;;;9.38;6.75;;;;;;;35.74;39.67;94897.47;5109807;28;20225;-44
2023/07/13 08:32:45;;;;;;;9.63;6.32;;;;;;;35.68;39.79;94899.44;5111723;28;20189;-44
2023/07/13 08:35:13;;;;;;;12.15;7.43;;;;;;;35.62;40.02;94898.75;5107585;28;20259;-43
2023/07/13 08:37:40;;;;;;;8.85;6.28;;;;;;;35.64;39.81;94888.59;5112418;28;20648;-43
2023/07/13 08:40:10;;;;;;;11.70;6.40;;;;;;;35.69;39.74;94893.81;5112409;28;20193;-44
2023/07/13 08:42:42;;;;;;;7.10;6.40;;;;;;;35.71;39.51;94880.25;5107671;28;20184;-43
2023/07/13 08:45:18;;;;;;;12.00;7.75;;;;;;;35.82;38.59;94891.50;5112000;28;20193;-44
2023/07/13 08:47:54;;;;;;;7.65;6.40;;;;;;;35.74;38.60;94887.63;5112483;28;20188;-44
2023/07/13 08:50:25;;;;;;;10.88;6.88;;;;;;;35.25;38.92;94837.59;5110628;28;20228;-43
2023/07/13 08:52:52;;;;;;;9.77;6.45;;;;;;;35.43;38.63;94885.44;5111743;28;20268;-44
2023/07/13 08:55:22;;;;;;;17.05;6.47;;;;;;;35.33;39.38;94890.13;5110888;28;20217;-43
2023/07/13 08:57:56;;;;;;;8.15;6.55;;;;;;;35.43;39.22;94892.63;5111959;28;20287;-44
2023/07/13 09:00:26;;;;;;;7.43;6.55;;;;;;;35.60;38.99;94895.56;5111406;28;20188;-44
2023/07/13 09:02:58;;;;;;;12.02;7.13;;;;;;;35.65;38.46;94903.47;5111742;28;20655;-45
2023/07/13 09:05:31;;;;;;;9.40;6.63;;;;;;;35.38;38.21;94887.38;5111711;28;20204;-46
2023/07/13 09:08:19;;;;;;;9.20;6.85;;;;;;;35.33;38.59;94914.84;5111229;28;20193;-44
2023/07/13 09:10:47;;;;;;;8.57;7.28;;;;;;;35.22;39.17;94918.72;5109130;28;20307;-44
2023/07/13 09:13:27;;;;;;;11.93;6.85;;;;;;;35.19;39.44;94917.44;5111556;28;20678;-44
2023/07/13 09:15:53;;;;;;;14.05;6.43;;;;;;;35.28;39.25;94916.78;5111294;28;20224;-44
2023/07/13 09:18:27;;;;;;;9.63;6.28;;;;;;;35.10;39.57;94902.41;5111474;28;20197;-44
2023/07/13 09:20:58;;;;;;;9.52;6.95;;;;;;;35.11;39.91;94918.09;5111616;28;20688;-44
2023/07/13 09:23:30;;;;;;;10.95;6.97;;;;;;;35.18;39.44;94915.84;5111598;28;20205;-43
2023/07/13 09:26:05;;;;;;;11.20;7.15;;;;;;;35.07;40.07;94917.09;5111607;28;20308;-44
2023/07/13 09:28:38;;;;;;;11.30;7.75;;;;;;;35.05;40.63;94911.25;5107307;28;20235;-44
2023/07/13 09:31:06;;;;;;;20.42;7.35;;;;;;;35.13;39.86;94915.91;5111504;28;20277;-44
2023/07/13 09:33:35;;;;;;;10.55;6.90;;;;;;;35.18;40.17;94907.09;5111541;28;20208;-45
2023/07/13 09:36:02;;;;;;;8.48;6.95;;;;;;;35.25;40.01;94906.72;5111057;28;20617;-44
2023/07/13 09:38:31;;;;;;;14.98;7.47;;;;;;;35.33;39.30;94887.47;5111021;28;20254;-44
2023/07/13 09:41:14;;;;;;;10.38;7.10;;;;;;;35.60;39.21;94910.75;5111001;28;20192;-43
2023/07/13 09:44:01;;;;;;;8.68;7.20;;;;;;;35.63;38.24;94902.97;5110809;28;20271;-46
2023/07/13 09:46:28;;;;;;;8.65;6.25;;;;;;;35.67;38.47;94895.22;5110596;28;20241;-45
2023/07/13 09:48:57;;;;;;;9.95;6.78;;;;;;;35.63;38.29;94888.91;5110376;28;20193;-44
2023/07/13 09:51:24;;;;;;;9.52;6.38;;;;;;;35.58;38.33;94887.09;5110528;28;20794;-44
2023/07/13 09:53:50;;;;;;;8.05;6.50;;;;;;;35.61;37.68;94885.72;5107307;28;20202;-45
2023/07/13 09:56:22;;;;;;;10.57;5.72;;;;;;;35.48;37.31;94875.81;5110702;28;20212;-43
2023/07/13 09:58:49;;;;;;;15.50;6.13;;;;;;;35.55;36.48;94873.59;5107705;28;20197;-43
2023/07/13 10:01:16;;;;;;;6.03;4.32;;;;;;;35.61;35.82;94872.41;5107329;28;20214;-44
2023/07/13 10:03:54;;;;;;;5.60;4.75;;;;;;;35.74;33.33;94871.66;5108473;28;20234;-45
2023/07/13 10:06:23;;;;;;;7.80;3.92;;;;;;;35.81;32.10;94871.28;5109024;28;20196;-45
2023/07/13 10:08:52;;;;;;;7.82;4.63;;;;;;;35.84;32.24;94860.03;5109489;28;20567;-45
2023/07/13 10:11:22;;;;;;;5.90;4.30;;;;;;;35.87;32.64;94860.25;5104213;28;20284;-44
2023/07/13 10:13:55;;;;;;;5.47;4.60;;;;;;;35.86;33.29;94855.22;5109109;28;20864;-44
2023/07/13 10:16:23;;;;;;;7.70;4.80;;;;;;;35.93;32.97;94866.28;5110262;28;20230;-44
2023/07/13 10:18:54;;;;;;;8.10;4.20;;;;;;;35.99;33.63;94867.00;5107430;28;20232;-44
2023/07/13 10:21:27;;;;;;;9.65;4.97;;;;;;;36.01;33.46;94870.16;5110389;28;20280;-44
2023/07/13 10:23:59;;;;;;;8.23;4.60;;;;;;;36.09;31.95;94862.28;5110288;28;20272;-44
2023/07/13 10:26:30;;;;;;;10.70;4.60;;;;;;;36.07;31.73;94851.16;5110304;28;20293;-44
2023/07/13 10:29:01;;;;;;;8.30;4.63;;;;;;;35.94;32.64;94862.53;5109981;28;20239;-44
2023/07/13 10:31:28;;;;;;;7.78;4.32;;;;;;;36.06;31.32;94862.09;5109968;28;20189;-45
2023/07/13 10:33:55;;;;;;;8.50;4.32;;;;;;;36.05;31.68;94850.63;5109923;28;20216;-43
2023/07/13 10:36:32;;;;;;;8.82;4.50;;;;;;;36.05;32.44;94849.84;5109895;28;20220;-44
2023/07/13 10:39:01;;;;;;;6.30;3.85;;;;;;;36.11;32.46;94840.69;5107718;28;20640;-44
2023/07/13 10:41:30;;;;;;;9.00;4.35;;;;;;;36.15;32.62;94839.03;5110184;28;20221;-44
2023/07/13 10:43:59;;;;;;;6.95;4.80;;;;;;;36.22;32.75;94847.38;5109558;28;20567;-44
2023/07/13 10:46:29;;;;;;;6.85;4.05;;;;;;;36.27;32.60;94846.50;5110156;28;20242;-45
2023/07/13 10:49:00;;;;;;;8.13;4.05;;;;;;;36.25;32.51;94838.03;5109772;28;20193;-45
2023/07/13 10:51:30;;;;;;;6.28;4.32;;;;;;;36.34;30.94;94830.91;5109790;28;20200;-44
2023/07/13 10:54:17;;;;;;;7.85;5.80;;;;;;;36.29;31.30;94825.69;5109711;28;20189;-43
2023/07/13 10:56:45;;;;;;;6.97;4.97;;;;;;;36.31;31.65;94824.31;5109545;28;20307;-44
2023/07/13 10:59:16;;;;;;;11.45;4.55;;;;;;;36.36;31.86;94815.44;5106970;28;20267;-45
2023/07/13 11:01:54;;;;;;;7.07;4.45;;;;;;;36.35;32.05;94813.84;5109766;28;20192;-44
2023/07/13 11:04:21;;;;;;;7.90;4.40;;;;;;;36.36;30.86;94813.56;5109336;28;20199;-44
2023/07/13 11:06:54;;;;;;;6.78;4.18;;;;;;;36.28;31.83;94814.25;5109443;28;20192;-44
2023/07/13 11:09:36;;;;;;;7.15;4.55;;;;;;;36.22;32.27;94796.00;5109304;28;20737;-45
2023/07/13 11:12:08;;;;;;;10.90;5.68;;;;;;;36.27;32.42;94811.88;5108372;28;20193;-43
2023/07/13 11:14:38;;;;;;;9.32;4.97;;;;;;;36.33;31.90;94790.19;5109124;28;20188;-44
2023/07/13 11:17:37;;;;;;;7.68;4.68;;;;;;;36.29;31.89;94794.53;5109124;28;20231;-45
2023/07/13 11:20:32;;;;;;;9.85;4.80;;;;;;;36.27;32.60;94794.03;5041134;28;20273;-46
2023/07/13 11:23:25;;;;;;;10.43;5.00;;;;;;;36.24;31.58;94785.84;5046257;28;20308;-45
2023/07/13 11:25:52;;;;;;;6.82;5.07;;;;;;;36.24;32.50;94791.97;5044470;28;20195;-45
2023/07/13 11:28:24;;;;;;;5.05;4.55;;;;;;;36.32;32.45;94779.81;5046218;28;20187;-45
2023/07/13 11:31:03;;;;;;;10.70;6.82;;;;;;;36.42;31.98;94790.25;5046151;28;20221;-45
2023/07/13 11:33:48;;;;;;;9.15;5.70;;;;;;;36.39;31.69;94782.84;5046307;28;20740;-43
2023/07/13 11:36:19;;;;;;;11.18;4.95;;;;;;;36.20;32.37;94774.22;5044778;28;20228;-45